createdAt,value
2018-06-28T05:01:53.131Z,62.54
2018-06-28T05:06:56.469Z,63.87
2018-06-28T05:11:59.803Z,63.41
2018-06-28T05:17:04.173Z,62.84
2018-06-28T05:22:07.506Z,64.49
2018-06-28T05:27:10.838Z,66.15
2018-06-28T05:32:14.168Z,64.15
2018-06-28T05:37:17.507Z,63.38
2018-06-28T05:42:21.612Z,62.89
2018-06-28T05:47:24.946Z,63.17
2018-06-28T05:52:29.035Z,63.39
2018-06-28T05:57:32.357Z,63.94
2018-06-28T06:02:35.686Z,64.64
2018-06-28T06:07:39.051Z,64.40
2018-06-28T06:12:42.417Z,65.50
2018-06-28T06:17:45.757Z,64.99
2018-06-28T06:22:49.087Z,65.95
2018-06-28T06:27:52.427Z,66.69
2018-06-28T06:32:55.878Z,68.73
2018-06-28T06:37:59.963Z,68.96
2018-06-28T06:43:03.391Z,69.10
2018-06-28T06:48:06.725Z,70.92
2018-06-28T06:53:10.057Z,69.13
2018-06-28T06:58:14.147Z,71.30
2018-06-28T07:03:17.479Z,73.22
2018-06-28T07:08:20.812Z,70.63
2018-06-28T07:13:24.913Z,70.48
2018-06-28T07:18:28.243Z,70.24
2018-06-28T07:23:32.342Z,70.78
2018-06-28T07:28:35.698Z,74.55
2018-06-28T07:33:39.033Z,73.82
2018-06-28T07:38:42.363Z,71.95
2018-06-28T07:43:45.690Z,73.17
2018-06-28T07:48:49.019Z,71.87
2018-06-28T07:53:52.357Z,71.90
2018-06-28T07:58:56.450Z,71.24
2018-06-28T08:03:59.779Z,73.52
2018-06-28T08:09:04.801Z,74.86
2018-06-28T08:14:12.081Z,73.83
2018-06-28T08:19:15.406Z,74.21
2018-06-28T08:24:18.739Z,76.18
2018-06-28T08:29:22.058Z,73.23
2018-06-28T08:34:25.403Z,74.32
2018-06-28T08:39:29.496Z,73.12
2018-06-28T08:44:32.826Z,75.34
2018-06-28T08:49:36.162Z,73.84
2018-06-28T08:54:40.259Z,74.42
2018-06-28T08:59:43.599Z,73.62
2018-06-28T09:04:46.928Z,75.21
2018-06-28T09:09:51.023Z,75.79
2018-06-28T09:14:54.353Z,73.93
2018-06-28T09:19:57.688Z,75.25
2018-06-28T09:25:01.787Z,74.40
2018-06-28T09:30:05.124Z,73.92
2018-06-28T09:35:09.226Z,74.98
2018-06-28T09:40:12.566Z,75.06
2018-06-28T09:45:16.707Z,77.72
2018-06-28T09:50:20.764Z,76.81
2018-06-28T09:55:24.095Z,77.67
2018-06-28T10:00:27.488Z,79.29
2018-06-28T10:05:30.791Z,79.77
2018-06-28T10:10:34.124Z,80.42
2018-06-28T10:15:37.455Z,80.21
2018-06-28T10:20:40.800Z,80.85
2018-06-28T10:25:44.903Z,80.49
2018-06-28T10:30:48.257Z,78.99
2018-06-28T10:35:51.587Z,79.35
2018-06-28T10:40:54.945Z,80.83
2018-06-28T10:45:58.285Z,80.11
2018-06-28T10:51:02.382Z,81.33
2018-06-28T10:56:05.723Z,81.16
2018-06-28T11:01:09.818Z,80.25
2018-06-28T11:06:13.146Z,81.04
2018-06-28T11:11:16.495Z,79.93
2018-06-28T11:16:19.830Z,80.54
2018-06-28T11:21:23.160Z,80.88
2018-06-28T11:26:26.495Z,80.74
2018-06-28T11:31:29.840Z,79.44
2018-06-28T11:36:33.944Z,78.61
2018-06-28T11:41:37.289Z,78.83
2018-06-28T11:46:40.620Z,79.20
2018-06-28T11:51:43.957Z,80.06
2018-06-28T11:56:47.298Z,79.35
2018-06-28T12:01:50.641Z,80.44
2018-06-28T12:06:53.979Z,80.22
2018-06-28T12:11:57.316Z,79.84
2018-06-28T12:17:00.646Z,80.66
2018-06-28T12:22:03.983Z,79.38
2018-06-28T12:27:07.327Z,81.15
2018-06-28T12:32:10.658Z,80.22
2018-06-28T12:37:13.991Z,81.23
2018-06-28T12:42:17.331Z,82.41
2018-06-28T12:47:38.267Z,83.52
2018-06-28T12:52:41.599Z,84.45
2018-06-28T12:57:44.925Z,86.76
2018-06-28T13:02:48.269Z,85.83
2018-06-28T13:07:51.606Z,87.29
2018-06-28T13:12:55.717Z,87.82
2018-06-28T13:17:59.065Z,89.18
2018-06-28T13:23:02.398Z,88.95
2018-06-28T13:28:05.732Z,89.47
2018-06-28T13:33:09.080Z,88.92
2018-06-28T13:38:13.196Z,88.98
2018-06-28T13:43:16.531Z,89.14
2018-06-28T13:48:20.629Z,88.86
2018-06-28T13:53:23.962Z,89.02
2018-06-28T13:58:28.065Z,89.05
2018-06-28T14:03:31.495Z,88.89
2018-06-28T14:08:34.766Z,91.85
2018-06-28T14:13:38.102Z,93.33
2018-06-28T14:18:41.465Z,95.73
2018-06-28T14:23:45.571Z,96.01
2018-06-28T14:28:48.909Z,95.98
2018-06-28T14:33:52.247Z,95.69
2018-06-28T14:38:55.587Z,94.85
2018-06-28T14:43:59.018Z,88.96
2018-06-28T14:49:02.376Z,90.85
2018-06-28T14:54:05.740Z,92.01
2018-06-28T14:59:09.091Z,91.12
2018-06-28T15:04:12.445Z,88.65
2018-06-28T15:09:15.773Z,89.24
2018-06-28T15:14:19.151Z,89.00
2018-06-28T15:19:25.772Z,91.18
2018-06-28T15:24:29.117Z,90.94
2018-06-28T15:29:33.211Z,91.66
2018-06-28T15:34:36.538Z,91.80
2018-06-28T15:39:39.874Z,93.05
2018-06-28T15:44:43.982Z,92.96
2018-06-28T15:49:47.329Z,91.50
2018-06-28T15:54:50.674Z,90.42
2018-06-28T16:00:09.295Z,90.45
2018-06-28T16:05:13.412Z,91.45
2018-06-28T16:15:52.096Z,91.03
2018-06-28T16:20:56.191Z,91.24
2018-06-28T16:25:59.527Z,90.09
2018-06-28T16:31:02.969Z,90.45
2018-06-28T16:36:07.234Z,90.82
2018-06-28T16:41:12.190Z,90.42
2018-06-28T16:46:15.565Z,90.75
2018-06-28T16:51:19.791Z,90.30
2018-06-28T16:56:23.135Z,90.22
2018-06-28T17:01:26.470Z,90.34
2018-06-28T17:06:29.830Z,90.41
2018-06-28T17:11:33.183Z,90.70
2018-06-28T17:16:36.547Z,90.81
2018-06-28T17:21:39.901Z,90.07
2018-06-28T17:26:43.267Z,90.66
2018-06-28T17:31:46.618Z,90.22
2018-06-28T17:36:49.964Z,89.76
2018-06-28T17:41:53.296Z,89.29
2018-06-28T17:46:56.631Z,89.64
2018-06-28T17:52:00.727Z,89.80
2018-06-28T17:57:04.080Z,89.09
2018-06-28T18:02:08.179Z,88.34
2018-06-28T18:07:11.510Z,88.56
2018-06-28T18:12:14.849Z,88.59
2018-06-28T18:17:18.189Z,89.31
2018-06-28T18:22:21.523Z,89.05
2018-06-28T18:27:24.861Z,88.23
2018-06-28T18:32:28.192Z,89.17
2018-06-28T18:37:32.292Z,89.58
2018-06-28T18:42:35.630Z,89.10
2018-06-28T18:47:39.727Z,88.95
2018-06-28T18:52:43.065Z,88.14
2018-06-28T18:57:47.162Z,87.80
2018-06-28T19:02:50.507Z,88.05
2018-06-28T19:07:54.608Z,87.78
2018-06-28T19:12:57.943Z,88.08
2018-06-28T19:18:01.281Z,88.49
2018-06-28T19:28:33.343Z,87.99
2018-06-28T19:33:36.684Z,88.14
2018-06-28T19:38:40.020Z,87.87
2018-06-28T19:43:44.139Z,88.04
2018-06-28T19:48:48.234Z,87.75
2018-06-28T19:53:51.574Z,87.81
2018-06-28T19:58:54.923Z,87.40
2018-06-28T20:04:12.858Z,87.78
2018-06-28T20:09:16.977Z,87.41
2018-06-28T20:19:55.343Z,87.58
2018-06-28T20:24:58.680Z,87.32
2018-06-28T20:35:31.399Z,87.47
2018-06-28T20:40:39.810Z,87.30
2018-06-28T20:45:43.150Z,87.15
2018-06-28T20:50:47.265Z,87.18
2018-06-28T20:55:50.716Z,87.18
2018-06-28T21:00:54.055Z,87.34
2018-06-28T21:05:57.384Z,87.10
2018-06-28T21:11:00.727Z,87.15
2018-06-28T21:16:04.062Z,87.17
2018-06-28T21:21:08.219Z,87.08
2018-06-28T21:26:11.507Z,87.04
2018-06-28T21:31:15.609Z,87.03
2018-06-28T21:36:18.960Z,87.14
2018-06-28T21:41:22.297Z,87.14
2018-06-28T21:46:25.649Z,87.05
2018-06-28T21:51:28.994Z,87.14
2018-06-28T21:56:32.355Z,87.13
2018-06-28T22:01:35.690Z,87.10
2018-06-28T22:06:39.789Z,87.12
2018-06-28T22:11:43.126Z,87.14
2018-06-28T22:16:46.467Z,87.12
2018-06-28T22:21:50.567Z,87.06
2018-06-28T22:26:53.900Z,87.03
